sensor_id;sensor_type;location;lat;lon;timestamp;temperature;humidity
35491;DHT22;21605;52.068;20.806;2022-09-29T00:00:26;9.10;99.90
35491;DHT22;21605;52.068;20.806;2022-09-29T00:02:52;9.10;99.90
35491;DHT22;21605;52.068;20.806;2022-09-29T00:05:18;9.20;99.90
35491;DHT22;21605;52.068;20.806;2022-09-29T00:07:43;9.20;99.90
35491;DHT22;21605;52.068;20.806;2022-09-29T00:10:09;9.20;99.90
35491;DHT22;21605;52.068;20.806;2022-09-29T00:12:35;9.20;99.90
35491;DHT22;21605;52.068;20.806;2022-09-29T00:15:01;9.30;99.90
35491;DHT22;21605;52.068;20.806;2022-09-29T00:17:27;9.20;99.90
35491;DHT22;21605;52.068;20.806;2022-09-29T00:19:52;9.30;99.90
35491;DHT22;21605;52.068;20.806;2022-09-29T00:22:18;9.30;99.90
35491;DHT22;21605;52.068;20.806;2022-09-29T00:24:46;8.50;99.90
35491;DHT22;21605;52.068;20.806;2022-09-29T00:27:17;9.30;99.90
35491;DHT22;21605;52.068;20.806;2022-09-29T00:29:43;9.30;99.90
35491;DHT22;21605;52.068;20.806;2022-09-29T00:32:09;9.40;99.90
35491;DHT22;21605;52.068;20.806;2022-09-29T00:34:35;9.40;99.90
35491;DHT22;21605;52.068;20.806;2022-09-29T00:37:00;9.40;99.90
35491;DHT22;21605;52.068;20.806;2022-09-29T00:39:26;9.40;99.90
35491;DHT22;21605;52.068;20.806;2022-09-29T00:41:51;9.50;99.90
35491;DHT22;21605;52.068;20.806;2022-09-29T00:47:00;9.50;99.90
35491;DHT22;21605;52.068;20.806;2022-09-29T00:49:46;9.50;99.90
35491;DHT22;21605;52.068;20.806;2022-09-29T00:52:17;9.50;99.90
35491;DHT22;21605;52.068;20.806;2022-09-29T00:54:50;9.50;99.90
35491;DHT22;21605;52.068;20.806;2022-09-29T00:57:20;9.60;99.90
35491;DHT22;21605;52.068;20.806;2022-09-29T01:00:15;9.60;99.90
35491;DHT22;21605;52.068;20.806;2022-09-29T01:02:43;9.60;99.90
35491;DHT22;21605;52.068;20.806;2022-09-29T01:05:16;9.60;99.90
35491;DHT22;21605;52.068;20.806;2022-09-29T01:07:43;9.60;99.90
35491;DHT22;21605;52.068;20.806;2022-09-29T01:10:12;9.60;99.90
35491;DHT22;21605;52.068;20.806;2022-09-29T01:12:39;9.60;99.90
35491;DHT22;21605;52.068;20.806;2022-09-29T01:15:05;9.70;99.90
35491;DHT22;21605;52.068;20.806;2022-09-29T01:17:31;9.70;99.90
35491;DHT22;21605;52.068;20.806;2022-09-29T01:36:18;9.70;99.90
35491;DHT22;21605;52.068;20.806;2022-09-29T01:39:18;9.60;99.90
35491;DHT22;21605;52.068;20.806;2022-09-29T01:42:18;9.60;99.90
35491;DHT22;21605;52.068;20.806;2022-09-29T01:44:49;9.60;99.90
35491;DHT22;21605;52.068;20.806;2022-09-29T01:47:24;9.60;99.90
35491;DHT22;21605;52.068;20.806;2022-09-29T01:50:07;9.50;99.90
35491;DHT22;21605;52.068;20.806;2022-09-29T01:52:41;9.50;99.90
35491;DHT22;21605;52.068;20.806;2022-09-29T01:55:10;9.50;99.90
35491;DHT22;21605;52.068;20.806;2022-09-29T01:58:00;9.50;99.90
35491;DHT22;21605;52.068;20.806;2022-09-29T02:00:28;9.50;99.90
35491;DHT22;21605;52.068;20.806;2022-09-29T02:03:28;9.50;99.90
35491;DHT22;21605;52.068;20.806;2022-09-29T02:05:58;9.50;99.90
35491;DHT22;21605;52.068;20.806;2022-09-29T02:08:35;9.50;99.90
35491;DHT22;21605;52.068;20.806;2022-09-29T02:11:05;9.50;99.90
35491;DHT22;21605;52.068;20.806;2022-09-29T02:13:36;9.50;99.90
35491;DHT22;21605;52.068;20.806;2022-09-29T02:16:04;9.50;99.90
35491;DHT22;21605;52.068;20.806;2022-09-29T02:18:39;9.40;99.90
35491;DHT22;21605;52.068;20.806;2022-09-29T02:21:07;9.40;99.90
35491;DHT22;21605;52.068;20.806;2022-09-29T02:23:33;9.50;99.90
35491;DHT22;21605;52.068;20.806;2022-09-29T02:25:59;9.40;99.90
35491;DHT22;21605;52.068;20.806;2022-09-29T02:28:25;9.40;99.90
35491;DHT22;21605;52.068;20.806;2022-09-29T02:30:52;9.40;99.90
35491;DHT22;21605;52.068;20.806;2022-09-29T02:33:22;9.40;99.90
35491;DHT22;21605;52.068;20.806;2022-09-29T02:36:44;9.40;99.90
35491;DHT22;21605;52.068;20.806;2022-09-29T02:38:56;9.40;99.90
35491;DHT22;21605;52.068;20.806;2022-09-29T02:49:42;9.30;99.90
35491;DHT22;21605;52.068;20.806;2022-09-29T02:52:36;9.30;99.90
35491;DHT22;21605;52.068;20.806;2022-09-29T02:55:16;9.30;99.90
35491;DHT22;21605;52.068;20.806;2022-09-29T02:58:03;9.30;99.90
35491;DHT22;21605;52.068;20.806;2022-09-29T03:00:30;9.30;99.90
35491;DHT22;21605;52.068;20.806;2022-09-29T03:02:56;9.30;99.90
35491;DHT22;21605;52.068;20.806;2022-09-29T03:05:22;9.20;99.90
35491;DHT22;21605;52.068;20.806;2022-09-29T03:07:48;9.30;99.90
35491;DHT22;21605;52.068;20.806;2022-09-29T03:10:15;9.20;99.90
35491;DHT22;21605;52.068;20.806;2022-09-29T03:12:42;9.20;99.90
35491;DHT22;21605;52.068;20.806;2022-09-29T03:15:08;9.20;99.90
35491;DHT22;21605;52.068;20.806;2022-09-29T03:17:35;9.20;99.90
35491;DHT22;21605;52.068;20.806;2022-09-29T03:20:02;9.20;99.90
35491;DHT22;21605;52.068;20.806;2022-09-29T03:22:28;9.20;99.90
35491;DHT22;21605;52.068;20.806;2022-09-29T03:24:53;9.20;99.90
35491;DHT22;21605;52.068;20.806;2022-09-29T03:27:19;9.20;99.90
35491;DHT22;21605;52.068;20.806;2022-09-29T03:29:45;9.20;99.90
35491;DHT22;21605;52.068;20.806;2022-09-29T03:32:10;9.20;99.90
35491;DHT22;21605;52.068;20.806;2022-09-29T03:34:36;9.20;99.90
35491;DHT22;21605;52.068;20.806;2022-09-29T03:37:01;9.20;99.90
35491;DHT22;21605;52.068;20.806;2022-09-29T03:39:27;9.20;99.90
35491;DHT22;21605;52.068;20.806;2022-09-29T03:41:53;9.20;99.90
35491;DHT22;21605;52.068;20.806;2022-09-29T03:44:19;9.20;99.90
35491;DHT22;21605;52.068;20.806;2022-09-29T03:46:46;9.20;99.90
35491;DHT22;21605;52.068;20.806;2022-09-29T03:49:12;9.20;99.90
35491;DHT22;21605;52.068;20.806;2022-09-29T03:51:38;9.20;99.90
35491;DHT22;21605;52.068;20.806;2022-09-29T03:54:04;9.20;99.90
35491;DHT22;21605;52.068;20.806;2022-09-29T03:56:30;9.20;99.90
35491;DHT22;21605;52.068;20.806;2022-09-29T03:58:56;9.20;99.90
35491;DHT22;21605;52.068;20.806;2022-09-29T04:01:22;9.20;99.90
35491;DHT22;21605;52.068;20.806;2022-09-29T04:03:47;9.20;99.90
35491;DHT22;21605;52.068;20.806;2022-09-29T04:06:13;9.20;99.90
35491;DHT22;21605;52.068;20.806;2022-09-29T04:08:38;9.20;99.90
35491;DHT22;21605;52.068;20.806;2022-09-29T04:11:05;9.20;99.90
35491;DHT22;21605;52.068;20.806;2022-09-29T04:13:31;9.20;99.90
35491;DHT22;21605;52.068;20.806;2022-09-29T04:16:01;9.20;99.90
35491;DHT22;21605;52.068;20.806;2022-09-29T04:18:27;9.20;99.90
35491;DHT22;21605;52.068;20.806;2022-09-29T04:20:54;9.20;99.90
35491;DHT22;21605;52.068;20.806;2022-09-29T04:23:21;9.20;99.90
35491;DHT22;21605;52.068;20.806;2022-09-29T04:25:47;9.20;99.90
35491;DHT22;21605;52.068;20.806;2022-09-29T04:28:13;9.20;99.90
35491;DHT22;21605;52.068;20.806;2022-09-29T04:30:38;9.20;99.90
35491;DHT22;21605;52.068;20.806;2022-09-29T04:33:04;9.20;99.90
35491;DHT22;21605;52.068;20.806;2022-09-29T04:35:29;9.20;99.90
35491;DHT22;21605;52.068;20.806;2022-09-29T04:37:55;9.20;99.90
35491;DHT22;21605;52.068;20.806;2022-09-29T04:40:22;9.20;99.90
35491;DHT22;21605;52.068;20.806;2022-09-29T04:42:48;9.20;99.90
35491;DHT22;21605;52.068;20.806;2022-09-29T04:45:14;9.20;99.90
35491;DHT22;21605;52.068;20.806;2022-09-29T04:47:40;9.20;99.90
35491;DHT22;21605;52.068;20.806;2022-09-29T04:50:06;10.40;99.90
35491;DHT22;21605;52.068;20.806;2022-09-29T04:52:32;9.20;99.90
35491;DHT22;21605;52.068;20.806;2022-09-29T04:54:57;7.90;99.90
35491;DHT22;21605;52.068;20.806;2022-09-29T04:57:23;9.20;99.90
35491;DHT22;21605;52.068;20.806;2022-09-29T04:59:49;9.50;99.90
35491;DHT22;21605;52.068;20.806;2022-09-29T05:02:17;9.20;99.90
35491;DHT22;21605;52.068;20.806;2022-09-29T05:04:43;9.20;99.90
35491;DHT22;21605;52.068;20.806;2022-09-29T05:07:08;9.20;99.90
35491;DHT22;21605;52.068;20.806;2022-09-29T05:09:34;9.20;99.90
35491;DHT22;21605;52.068;20.806;2022-09-29T05:12:00;9.20;99.90
35491;DHT22;21605;52.068;20.806;2022-09-29T05:14:26;9.20;99.90
35491;DHT22;21605;52.068;20.806;2022-09-29T05:16:56;9.20;99.90
35491;DHT22;21605;52.068;20.806;2022-09-29T05:19:22;9.20;99.90
35491;DHT22;21605;52.068;20.806;2022-09-29T05:21:48;9.20;99.90
35491;DHT22;21605;52.068;20.806;2022-09-29T05:24:13;9.20;99.90
35491;DHT22;21605;52.068;20.806;2022-09-29T05:26:39;9.20;99.90
35491;DHT22;21605;52.068;20.806;2022-09-29T05:29:05;9.20;99.90
35491;DHT22;21605;52.068;20.806;2022-09-29T05:31:31;9.20;99.90
35491;DHT22;21605;52.068;20.806;2022-09-29T05:33:56;9.20;99.90
35491;DHT22;21605;52.068;20.806;2022-09-29T05:36:23;9.20;99.90
35491;DHT22;21605;52.068;20.806;2022-09-29T05:38:49;9.20;99.90
35491;DHT22;21605;52.068;20.806;2022-09-29T05:41:15;7.70;99.90
35491;DHT22;21605;52.068;20.806;2022-09-29T05:43:47;9.20;99.90
35491;DHT22;21605;52.068;20.806;2022-09-29T05:46:13;9.20;99.90
35491;DHT22;21605;52.068;20.806;2022-09-29T05:48:39;9.30;99.90
35491;DHT22;21605;52.068;20.806;2022-09-29T05:51:08;9.20;99.90
35491;DHT22;21605;52.068;20.806;2022-09-29T05:53:34;9.30;99.90
35491;DHT22;21605;52.068;20.806;2022-09-29T05:56:04;9.30;99.90
35491;DHT22;21605;52.068;20.806;2022-09-29T05:58:30;9.30;99.90
35491;DHT22;21605;52.068;20.806;2022-09-29T06:00:56;9.30;99.90
35491;DHT22;21605;52.068;20.806;2022-09-29T06:03:22;8.00;99.90
35491;DHT22;21605;52.068;20.806;2022-09-29T06:05:48;9.40;99.90
35491;DHT22;21605;52.068;20.806;2022-09-29T06:08:13;9.40;99.90
35491;DHT22;21605;52.068;20.806;2022-09-29T06:10:39;9.40;99.90
35491;DHT22;21605;52.068;20.806;2022-09-29T06:13:04;9.50;99.90
35491;DHT22;21605;52.068;20.806;2022-09-29T06:15:30;9.50;99.90
35491;DHT22;21605;52.068;20.806;2022-09-29T06:17:57;9.50;99.90
35491;DHT22;21605;52.068;20.806;2022-09-29T06:20:23;9.50;99.90
35491;DHT22;21605;52.068;20.806;2022-09-29T06:22:52;9.60;99.90
35491;DHT22;21605;52.068;20.806;2022-09-29T06:25:18;9.60;99.90
35491;DHT22;21605;52.068;20.806;2022-09-29T06:27:44;9.60;99.90
35491;DHT22;21605;52.068;20.806;2022-09-29T06:30:10;9.60;99.90
35491;DHT22;21605;52.068;20.806;2022-09-29T06:32:37;9.70;99.90
35491;DHT22;21605;52.068;20.806;2022-09-29T06:35:03;9.70;99.90
35491;DHT22;21605;52.068;20.806;2022-09-29T06:37:47;9.70;99.90
35491;DHT22;21605;52.068;20.806;2022-09-29T06:40:13;9.70;99.90
35491;DHT22;21605;52.068;20.806;2022-09-29T06:42:39;9.70;99.90
35491;DHT22;21605;52.068;20.806;2022-09-29T06:45:05;9.70;99.90
35491;DHT22;21605;52.068;20.806;2022-09-29T06:47:31;9.80;99.90
35491;DHT22;21605;52.068;20.806;2022-09-29T06:49:56;9.80;99.90
35491;DHT22;21605;52.068;20.806;2022-09-29T06:52:26;9.90;99.90
35491;DHT22;21605;52.068;20.806;2022-09-29T06:54:52;9.90;99.90
35491;DHT22;21605;52.068;20.806;2022-09-29T06:57:17;10.00;99.90
35491;DHT22;21605;52.068;20.806;2022-09-29T06:59:43;10.00;99.90
35491;DHT22;21605;52.068;20.806;2022-09-29T07:02:10;10.10;99.90
35491;DHT22;21605;52.068;20.806;2022-09-29T07:04:35;10.10;99.90
35491;DHT22;21605;52.068;20.806;2022-09-29T07:07:01;10.20;99.90
35491;DHT22;21605;52.068;20.806;2022-09-29T07:09:27;10.30;99.90
35491;DHT22;21605;52.068;20.806;2022-09-29T07:11:52;10.40;99.90
35491;DHT22;21605;52.068;20.806;2022-09-29T07:14:20;10.50;99.90
35491;DHT22;21605;52.068;20.806;2022-09-29T07:16:50;10.60;99.90
35491;DHT22;21605;52.068;20.806;2022-09-29T07:19:17;10.60;99.90
35491;DHT22;21605;52.068;20.806;2022-09-29T07:21:43;10.80;99.90
35491;DHT22;21605;52.068;20.806;2022-09-29T07:24:09;10.80;99.90
35491;DHT22;21605;52.068;20.806;2022-09-29T07:26:35;10.90;99.90
35491;DHT22;21605;52.068;20.806;2022-09-29T07:29:02;11.00;99.90
35491;DHT22;21605;52.068;20.806;2022-09-29T07:31:28;11.10;99.90
35491;DHT22;21605;52.068;20.806;2022-09-29T07:33:55;11.20;99.90
35491;DHT22;21605;52.068;20.806;2022-09-29T07:36:21;11.20;99.90
35491;DHT22;21605;52.068;20.806;2022-09-29T07:38:48;11.30;99.90
35491;DHT22;21605;52.068;20.806;2022-09-29T07:41:14;11.30;99.90
35491;DHT22;21605;52.068;20.806;2022-09-29T07:43:40;11.40;99.90
35491;DHT22;21605;52.068;20.806;2022-09-29T07:46:06;11.40;99.90
35491;DHT22;21605;52.068;20.806;2022-09-29T07:48:32;11.50;99.90
35491;DHT22;21605;52.068;20.806;2022-09-29T07:51:05;11.50;99.90
35491;DHT22;21605;52.068;20.806;2022-09-29T07:53:31;11.60;99.90
35491;DHT22;21605;52.068;20.806;2022-09-29T07:56:09;11.60;99.90
35491;DHT22;21605;52.068;20.806;2022-09-29T07:58:36;11.60;99.90
35491;DHT22;21605;52.068;20.806;2022-09-29T08:01:04;11.60;99.90
35491;DHT22;21605;52.068;20.806;2022-09-29T08:03:31;11.60;99.90
35491;DHT22;21605;52.068;20.806;2022-09-29T08:05:57;11.60;99.90
35491;DHT22;21605;52.068;20.806;2022-09-29T08:08:24;11.70;99.90
35491;DHT22;21605;52.068;20.806;2022-09-29T08:10:49;11.70;99.90
35491;DHT22;21605;52.068;20.806;2022-09-29T08:13:15;11.70;99.90
35491;DHT22;21605;52.068;20.806;2022-09-29T08:15:41;11.80;99.90
35491;DHT22;21605;52.068;20.806;2022-09-29T08:18:07;13.00;99.90
35491;DHT22;21605;52.068;20.806;2022-09-29T08:20:34;11.80;99.90
35491;DHT22;21605;52.068;20.806;2022-09-29T08:23:00;11.90;99.90
35491;DHT22;21605;52.068;20.806;2022-09-29T08:25:25;11.90;99.90
35491;DHT22;21605;52.068;20.806;2022-09-29T08:27:53;11.80;99.90
35491;DHT22;21605;52.068;20.806;2022-09-29T08:30:19;11.80;99.90
35491;DHT22;21605;52.068;20.806;2022-09-29T08:32:52;11.80;99.90
35491;DHT22;21605;52.068;20.806;2022-09-29T08:35:17;11.80;99.90
35491;DHT22;21605;52.068;20.806;2022-09-29T08:37:43;11.90;99.90
35491;DHT22;21605;52.068;20.806;2022-09-29T08:40:09;11.80;99.90
35491;DHT22;21605;52.068;20.806;2022-09-29T08:45:32;12.10;99.90
35491;DHT22;21605;52.068;20.806;2022-09-29T08:48:08;12.30;99.90
35491;DHT22;21605;52.068;20.806;2022-09-29T08:51:06;12.40;99.90
35491;DHT22;21605;52.068;20.806;2022-09-29T08:53:36;12.50;99.90
35491;DHT22;21605;52.068;20.806;2022-09-29T08:56:05;12.60;99.90
35491;DHT22;21605;52.068;20.806;2022-09-29T08:58:32;12.70;99.90
35491;DHT22;21605;52.068;20.806;2022-09-29T09:07:00;12.80;99.90
35491;DHT22;21605;52.068;20.806;2022-09-29T09:12:26;12.70;99.90
35491;DHT22;21605;52.068;20.806;2022-09-29T09:18:46;15.00;99.90
35491;DHT22;21605;52.068;20.806;2022-09-29T09:21:09;12.70;99.90
35491;DHT22;21605;52.068;20.806;2022-09-29T09:23:44;12.80;99.90
35491;DHT22;21605;52.068;20.806;2022-09-29T09:26:12;12.80;99.90
35491;DHT22;21605;52.068;20.806;2022-09-29T09:31:35;12.80;99.90
35491;DHT22;21605;52.068;20.806;2022-09-29T09:34:06;12.80;99.90
35491;DHT22;21605;52.068;20.806;2022-09-29T09:36:49;12.80;99.80
35491;DHT22;21605;52.068;20.806;2022-09-29T09:39:29;12.80;99.80
35491;DHT22;21605;52.068;20.806;2022-09-29T09:41:58;12.80;99.90
35491;DHT22;21605;52.068;20.806;2022-09-29T09:44:41;12.90;99.90
35491;DHT22;21605;52.068;20.806;2022-09-29T09:49:55;12.90;99.90
35491;DHT22;21605;52.068;20.806;2022-09-29T09:52:40;12.90;99.90
35491;DHT22;21605;52.068;20.806;2022-09-29T09:55:19;12.90;99.60
35491;DHT22;21605;52.068;20.806;2022-09-29T09:58:00;13.00;99.90
35491;DHT22;21605;52.068;20.806;2022-09-29T10:00:35;13.10;99.80
35491;DHT22;21605;52.068;20.806;2022-09-29T10:03:05;13.10;99.90
35491;DHT22;21605;52.068;20.806;2022-09-29T10:05:43;13.10;99.90
35491;DHT22;21605;52.068;20.806;2022-09-29T10:08:30;13.20;99.20
35491;DHT22;21605;52.068;20.806;2022-09-29T10:11:03;13.30;99.30
35491;DHT22;21605;52.068;20.806;2022-09-29T10:13:30;13.40;99.40
35491;DHT22;21605;52.068;20.806;2022-09-29T10:16:19;13.50;99.30
35491;DHT22;21605;52.068;20.806;2022-09-29T10:18:49;13.60;99.10
35491;DHT22;21605;52.068;20.806;2022-09-29T10:21:41;13.70;99.10
35491;DHT22;21605;52.068;20.806;2022-09-29T10:24:21;13.70;98.50
35491;DHT22;21605;52.068;20.806;2022-09-29T10:26:49;13.70;98.50
35491;DHT22;21605;52.068;20.806;2022-09-29T10:29:37;13.70;98.00
35491;DHT22;21605;52.068;20.806;2022-09-29T10:32:09;13.70;97.80
35491;DHT22;21605;52.068;20.806;2022-09-29T10:34:40;13.80;98.40
35491;DHT22;21605;52.068;20.806;2022-09-29T10:39:45;13.90;97.90
35491;DHT22;21605;52.068;20.806;2022-09-29T10:45:23;15.00;98.30
35491;DHT22;21605;52.068;20.806;2022-09-29T10:50:34;13.90;97.70
35491;DHT22;21605;52.068;20.806;2022-09-29T10:53:03;13.90;97.70
35491;DHT22;21605;52.068;20.806;2022-09-29T10:55:30;13.90;97.50
35491;DHT22;21605;52.068;20.806;2022-09-29T10:57:59;13.90;97.60
35491;DHT22;21605;52.068;20.806;2022-09-29T11:02:53;14.40;98.40
35491;DHT22;21605;52.068;20.806;2022-09-29T11:05:23;14.60;98.40
35491;DHT22;21605;52.068;20.806;2022-09-29T11:07:51;14.80;97.70
35491;DHT22;21605;52.068;20.806;2022-09-29T11:10:36;15.10;97.30
35491;DHT22;21605;52.068;20.806;2022-09-29T11:15:44;15.50;97.30
35491;DHT22;21605;52.068;20.806;2022-09-29T11:18:29;15.70;96.60
35491;DHT22;21605;52.068;20.806;2022-09-29T11:24:00;15.70;95.80
35491;DHT22;21605;52.068;20.806;2022-09-29T11:38:00;15.80;95.40
35491;DHT22;21605;52.068;20.806;2022-09-29T11:40:39;15.70;95.20
35491;DHT22;21605;52.068;20.806;2022-09-29T11:54:22;15.30;94.80
35491;DHT22;21605;52.068;20.806;2022-09-29T11:57:00;15.30;95.00
35491;DHT22;21605;52.068;20.806;2022-09-29T12:05:18;15.20;95.30
35491;DHT22;21605;52.068;20.806;2022-09-29T12:16:38;15.00;95.20
35491;DHT22;21605;52.068;20.806;2022-09-29T12:19:15;15.00;95.20
35491;DHT22;21605;52.068;20.806;2022-09-29T12:21:47;15.00;95.20
35491;DHT22;21605;52.068;20.806;2022-09-29T12:24:36;15.00;95.30
35491;DHT22;21605;52.068;20.806;2022-09-29T12:34:58;14.90;95.20
35491;DHT22;21605;52.068;20.806;2022-09-29T12:37:31;14.80;95.20
35491;DHT22;21605;52.068;20.806;2022-09-29T12:40:25;14.80;95.20
35491;DHT22;21605;52.068;20.806;2022-09-29T12:50:56;14.50;94.90
35491;DHT22;21605;52.068;20.806;2022-09-29T12:53:36;14.60;95.40
35491;DHT22;21605;52.068;20.806;2022-09-29T12:59:13;14.50;95.20
35491;DHT22;21605;52.068;20.806;2022-09-29T13:01:40;14.50;95.50
35491;DHT22;21605;52.068;20.806;2022-09-29T13:23:19;14.40;95.70
35491;DHT22;21605;52.068;20.806;2022-09-29T13:28:52;14.40;95.20
35491;DHT22;21605;52.068;20.806;2022-09-29T13:31:23;14.40;95.60
35491;DHT22;21605;52.068;20.806;2022-09-29T13:33:54;14.30;95.70
35491;DHT22;21605;52.068;20.806;2022-09-29T13:36:33;14.40;95.60
35491;DHT22;21605;52.068;20.806;2022-09-29T13:39:16;14.40;95.60
35491;DHT22;21605;52.068;20.806;2022-09-29T13:41:44;14.40;95.60
35491;DHT22;21605;52.068;20.806;2022-09-29T13:46:42;14.30;95.60
35491;DHT22;21605;52.068;20.806;2022-09-29T13:57:20;14.30;95.70
35491;DHT22;21605;52.068;20.806;2022-09-29T14:05:05;14.20;95.70
35491;DHT22;21605;52.068;20.806;2022-09-29T14:10:28;14.20;95.60
35491;DHT22;21605;52.068;20.806;2022-09-29T14:13:21;14.10;95.40
35491;DHT22;21605;52.068;20.806;2022-09-29T14:16:04;14.10;95.50
35491;DHT22;21605;52.068;20.806;2022-09-29T14:18:55;14.10;95.60
35491;DHT22;21605;52.068;20.806;2022-09-29T14:27:24;14.00;95.80
35491;DHT22;21605;52.068;20.806;2022-09-29T14:30:16;14.00;95.80
35491;DHT22;21605;52.068;20.806;2022-09-29T14:32:58;13.90;95.80
35491;DHT22;21605;52.068;20.806;2022-09-29T14:35:35;13.90;95.70
35491;DHT22;21605;52.068;20.806;2022-09-29T14:38:26;13.80;95.60
35491;DHT22;21605;52.068;20.806;2022-09-29T14:52:20;13.60;95.80
35491;DHT22;21605;52.068;20.806;2022-09-29T15:03:05;13.20;96.10
35491;DHT22;21605;52.068;20.806;2022-09-29T15:05:33;13.20;96.20
35491;DHT22;21605;52.068;20.806;2022-09-29T15:08:00;13.10;96.30
35491;DHT22;21605;52.068;20.806;2022-09-29T15:10:29;13.00;96.50
35491;DHT22;21605;52.068;20.806;2022-09-29T15:13:33;13.00;96.60
35491;DHT22;21605;52.068;20.806;2022-09-29T15:16:59;12.90;96.70
35491;DHT22;21605;52.068;20.806;2022-09-29T15:27:40;12.80;97.00
35491;DHT22;21605;52.068;20.806;2022-09-29T15:30:14;12.70;97.00
35491;DHT22;21605;52.068;20.806;2022-09-29T15:32:41;12.70;97.00
35491;DHT22;21605;52.068;20.806;2022-09-29T15:35:13;12.70;97.00
35491;DHT22;21605;52.068;20.806;2022-09-29T15:40:15;12.60;97.10
35491;DHT22;21605;52.068;20.806;2022-09-29T15:42:41;12.50;97.20
35491;DHT22;21605;52.068;20.806;2022-09-29T15:45:24;12.50;97.30
35491;DHT22;21605;52.068;20.806;2022-09-29T15:48:05;12.40;97.40
35491;DHT22;21605;52.068;20.806;2022-09-29T15:50:39;12.40;97.40
35491;DHT22;21605;52.068;20.806;2022-09-29T15:53:05;12.30;97.40
35491;DHT22;21605;52.068;20.806;2022-09-29T15:55:32;12.30;97.60
35491;DHT22;21605;52.068;20.806;2022-09-29T15:57:58;12.20;97.60
35491;DHT22;21605;52.068;20.806;2022-09-29T16:05:39;12.00;97.70
35491;DHT22;21605;52.068;20.806;2022-09-29T16:08:18;11.90;97.80
35491;DHT22;21605;52.068;20.806;2022-09-29T16:10:51;11.90;97.80
35491;DHT22;21605;52.068;20.806;2022-09-29T16:13:20;11.80;98.00
35491;DHT22;21605;52.068;20.806;2022-09-29T16:15:48;11.80;98.10
35491;DHT22;21605;52.068;20.806;2022-09-29T16:21:06;11.70;98.20
35491;DHT22;21605;52.068;20.806;2022-09-29T16:23:39;11.60;98.30
35491;DHT22;21605;52.068;20.806;2022-09-29T16:28:31;11.50;98.70
35491;DHT22;21605;52.068;20.806;2022-09-29T16:31:05;11.50;98.80
35491;DHT22;21605;52.068;20.806;2022-09-29T16:33:35;11.40;98.70
35491;DHT22;21605;52.068;20.806;2022-09-29T16:36:16;11.40;98.80
35491;DHT22;21605;52.068;20.806;2022-09-29T16:38:46;11.40;99.00
35491;DHT22;21605;52.068;20.806;2022-09-29T16:44:27;11.30;98.90
35491;DHT22;21605;52.068;20.806;2022-09-29T16:50:15;11.20;99.10
35491;DHT22;21605;52.068;20.806;2022-09-29T16:52:26;9.50;98.70
35491;DHT22;21605;52.068;20.806;2022-09-29T17:00:19;11.00;99.40
35491;DHT22;21605;52.068;20.806;2022-09-29T17:02:56;11.00;99.40
35491;DHT22;21605;52.068;20.806;2022-09-29T17:05:29;10.90;99.50
35491;DHT22;21605;52.068;20.806;2022-09-29T17:08:03;10.90;99.70
35491;DHT22;21605;52.068;20.806;2022-09-29T17:10:29;10.80;99.70
35491;DHT22;21605;52.068;20.806;2022-09-29T17:12:55;10.80;99.80
35491;DHT22;21605;52.068;20.806;2022-09-29T17:15:22;10.80;99.70
35491;DHT22;21605;52.068;20.806;2022-09-29T17:17:49;10.70;99.50
35491;DHT22;21605;52.068;20.806;2022-09-29T17:20:21;10.70;99.70
35491;DHT22;21605;52.068;20.806;2022-09-29T17:22:54;10.70;99.60
35491;DHT22;21605;52.068;20.806;2022-09-29T17:25:19;10.60;99.70
35491;DHT22;21605;52.068;20.806;2022-09-29T17:27:45;10.60;99.70
35491;DHT22;21605;52.068;20.806;2022-09-29T17:30:29;10.50;99.60
35491;DHT22;21605;52.068;20.806;2022-09-29T17:32:56;10.50;99.70
35491;DHT22;21605;52.068;20.806;2022-09-29T17:35:35;10.40;99.80
35491;DHT22;21605;52.068;20.806;2022-09-29T17:38:02;10.40;99.90
35491;DHT22;21605;52.068;20.806;2022-09-29T17:43:14;10.30;99.90
35491;DHT22;21605;52.068;20.806;2022-09-29T17:45:42;10.20;99.90
35491;DHT22;21605;52.068;20.806;2022-09-29T17:48:08;10.20;99.90
35491;DHT22;21605;52.068;20.806;2022-09-29T17:50:51;10.10;99.90
35491;DHT22;21605;52.068;20.806;2022-09-29T17:53:23;10.10;99.90
35491;DHT22;21605;52.068;20.806;2022-09-29T17:55:51;10.00;99.90
35491;DHT22;21605;52.068;20.806;2022-09-29T17:58:19;10.00;99.90
35491;DHT22;21605;52.068;20.806;2022-09-29T18:00:47;10.00;99.90
35491;DHT22;21605;52.068;20.806;2022-09-29T18:03:14;9.90;99.90
35491;DHT22;21605;52.068;20.806;2022-09-29T18:05:43;9.90;99.90
35491;DHT22;21605;52.068;20.806;2022-09-29T18:08:14;9.90;99.90
35491;DHT22;21605;52.068;20.806;2022-09-29T18:10:41;9.80;99.90
35491;DHT22;21605;52.068;20.806;2022-09-29T18:13:08;9.80;99.90
35491;DHT22;21605;52.068;20.806;2022-09-29T18:15:34;9.80;99.90
35491;DHT22;21605;52.068;20.806;2022-09-29T18:18:01;9.60;99.90
35491;DHT22;21605;52.068;20.806;2022-09-29T18:20:29;9.70;99.90
35491;DHT22;21605;52.068;20.806;2022-09-29T18:22:56;9.70;99.90
35491;DHT22;21605;52.068;20.806;2022-09-29T18:25:29;9.60;99.90
35491;DHT22;21605;52.068;20.806;2022-09-29T18:27:55;9.60;99.90
35491;DHT22;21605;52.068;20.806;2022-09-29T18:32:53;9.50;99.90
35491;DHT22;21605;52.068;20.806;2022-09-29T18:35:28;9.60;99.90
35491;DHT22;21605;52.068;20.806;2022-09-29T18:37:54;9.50;99.90
35491;DHT22;21605;52.068;20.806;2022-09-29T18:40:20;9.50;99.90
35491;DHT22;21605;52.068;20.806;2022-09-29T18:42:48;9.50;99.90
35491;DHT22;21605;52.068;20.806;2022-09-29T18:45:19;9.50;99.90
35491;DHT22;21605;52.068;20.806;2022-09-29T18:47:50;9.50;99.90
35491;DHT22;21605;52.068;20.806;2022-09-29T18:50:22;9.50;99.90
35491;DHT22;21605;52.068;20.806;2022-09-29T18:52:49;9.40;99.90
35491;DHT22;21605;52.068;20.806;2022-09-29T18:55:16;9.40;99.90
35491;DHT22;21605;52.068;20.806;2022-09-29T18:57:45;9.40;99.90
35491;DHT22;21605;52.068;20.806;2022-09-29T19:00:13;9.40;99.90
35491;DHT22;21605;52.068;20.806;2022-09-29T19:02:43;9.40;99.90
35491;DHT22;21605;52.068;20.806;2022-09-29T19:05:15;9.40;99.90
35491;DHT22;21605;52.068;20.806;2022-09-29T19:07:43;9.30;99.90
35491;DHT22;21605;52.068;20.806;2022-09-29T19:10:10;9.30;99.90
35491;DHT22;21605;52.068;20.806;2022-09-29T19:12:37;9.30;99.90
35491;DHT22;21605;52.068;20.806;2022-09-29T19:15:02;9.30;99.90
35491;DHT22;21605;52.068;20.806;2022-09-29T19:17:29;9.30;99.90
35491;DHT22;21605;52.068;20.806;2022-09-29T19:19:56;9.20;99.90
35491;DHT22;21605;52.068;20.806;2022-09-29T19:22:23;9.20;99.90
35491;DHT22;21605;52.068;20.806;2022-09-29T19:24:51;9.20;99.90
35491;DHT22;21605;52.068;20.806;2022-09-29T19:27:18;9.20;99.90